Time;durP1;ratioP1;P1;durP2;ratioP2;P2;SDS_P1;SDS_P2;PMS_P1;PMS_P2;Temp;Humidity;BMP_temperature;BMP_pressure;BME280_temperature;BME280_humidity;BME280_pressure;Samples;Min_cycle;Max_cycle;Signal;HPM_P1;HPM_P2
2022/07/30 00:02:17;;;;;;;3.30;1.92;;;;;;;;;;4877927;29;20109;-79
2022/07/30 00:04:44;;;;;;;5.85;1.85;;;;;;;;;;4879152;29;20066;-78
2022/07/30 00:07:10;;;;;;;2.60;1.88;;;;;;;;;;4879232;29;20060;-78
2022/07/30 00:09:36;;;;;;;1.88;1.77;;;;;;;;;;4879636;29;20172;-80
2022/07/30 00:12:02;;;;;;;3.50;2.22;;;;;;;;;;4833654;29;20136;-78
2022/07/30 00:14:28;;;;;;;2.40;1.95;;;;;;;;;;4879661;29;20520;-79
2022/07/30 00:16:54;;;;;;;3.85;2.30;;;;;;;;;;4878976;29;20101;-79
2022/07/30 00:19:20;;;;;;;14.05;4.30;;;;;;;;;;4879497;29;20052;-79
2022/07/30 00:21:46;;;;;;;7.60;2.38;;;;;;;;;;4878810;29;20052;-78
2022/07/30 00:24:12;;;;;;;4.68;2.35;;;;;;;;;;4878680;29;20037;-80
2022/07/30 00:26:37;;;;;;;3.88;2.53;;;;;;;;;;4878577;29;20578;-79
2022/07/30 00:29:04;;;;;;;4.35;2.60;;;;;;;;;;4878799;29;20083;-78
2022/07/30 00:31:30;;;;;;;4.20;2.10;;;;;;;;;;4879544;29;20103;-78
2022/07/30 00:33:55;;;;;;;3.35;2.47;;;;;;;;;;4852492;29;20101;-77
2022/07/30 00:36:21;;;;;;;4.22;2.05;;;;;;;;;;4894709;29;20053;-78
2022/07/30 00:38:47;;;;;;;9.10;2.30;;;;;;;;;;4895331;29;20036;-79
2022/07/30 00:41:13;;;;;;;4.28;2.28;;;;;;;;;;4884210;29;20582;-80
2022/07/30 00:43:39;;;;;;;5.45;2.40;;;;;;;;;;4862506;29;20052;-78
2022/07/30 00:46:05;;;;;;;5.78;2.50;;;;;;;;;;4861838;29;20187;-78
2022/07/30 00:48:31;;;;;;;6.30;2.65;;;;;;;;;;4861856;29;20407;-79
2022/07/30 00:50:57;;;;;;;4.53;2.40;;;;;;;;;;4878541;29;20045;-79
2022/07/30 00:53:23;;;;;;;4.68;1.90;;;;;;;;;;4878248;29;20044;-79
2022/07/30 00:55:49;;;;;;;6.78;2.50;;;;;;;;;;4876966;29;20053;-79
2022/07/30 00:58:15;;;;;;;5.10;2.65;;;;;;;;;;4861640;29;20037;-78
2022/07/30 01:00:40;;;;;;;6.93;2.95;;;;;;;;;;4878274;29;20056;-79
2022/07/30 01:03:06;;;;;;;8.82;3.33;;;;;;;;;;4878282;29;20041;-80
2022/07/30 01:05:33;;;;;;;7.75;3.35;;;;;;;;;;4861347;29;20650;-78
2022/07/30 01:07:58;;;;;;;5.10;2.70;;;;;;;;;;4878327;29;20135;-78
2022/07/30 01:10:24;;;;;;;8.50;2.67;;;;;;;;;;4877964;29;20045;-79
2022/07/30 01:12:54;;;;;;;6.00;2.85;;;;;;;;;;4877163;29;20056;-77
2022/07/30 01:15:20;;;;;;;5.45;3.10;;;;;;;;;;4877954;29;20514;-77
2022/07/30 01:17:49;;;;;;;4.50;2.97;;;;;;;;;;4877990;29;20049;-79
2022/07/30 01:20:16;;;;;;;5.28;2.67;;;;;;;;;;4860941;29;20053;-79
2022/07/30 01:22:47;;;;;;;3.00;2.70;;;;;;;;;;4877884;29;20040;-78
2022/07/30 01:25:20;;;;;;;3.13;2.83;;;;;;;;;;4877550;29;20044;-79
2022/07/30 01:28:24;;;;;;;3.10;2.63;;;;;;;;;;4861260;29;20181;-78
2022/07/30 01:30:50;;;;;;;4.00;3.28;;;;;;;;;;4805185;29;20470;-78
2022/07/30 01:33:16;;;;;;;4.35;3.95;;;;;;;;;;4819979;29;20099;-79
2022/07/30 01:35:43;;;;;;;7.78;5.22;;;;;;;;;;4846898;29;20108;-79
2022/07/30 01:38:10;;;;;;;3.38;3.17;;;;;;;;;;4861133;29;20056;-78
2022/07/30 01:40:36;;;;;;;3.85;2.80;;;;;;;;;;4876489;29;20041;-79
2022/07/30 01:43:02;;;;;;;2.75;2.55;;;;;;;;;;4860991;29;20105;-78
2022/07/30 01:45:29;;;;;;;2.78;2.58;;;;;;;;;;4876094;29;20087;-78
2022/07/30 01:47:55;;;;;;;5.65;3.58;;;;;;;;;;4860740;29;20426;-78
2022/07/30 01:50:21;;;;;;;7.32;3.42;;;;;;;;;;4875826;29;20045;-79
2022/07/30 01:52:47;;;;;;;7.28;3.75;;;;;;;;;;4860684;29;20052;-78
2022/07/30 01:55:15;;;;;;;5.95;4.25;;;;;;;;;;4860435;29;20487;-79
2022/07/30 01:57:40;;;;;;;6.15;3.42;;;;;;;;;;4860888;29;20041;-79
2022/07/30 02:00:07;;;;;;;3.78;3.10;;;;;;;;;;4860433;29;20410;-79
2022/07/30 02:02:53;;;;;;;6.38;3.40;;;;;;;;;;4878104;29;20053;-79
2022/07/30 02:05:19;;;;;;;8.88;3.75;;;;;;;;;;4860294;29;20089;-79
2022/07/30 02:07:46;;;;;;;4.63;3.50;;;;;;;;;;4876740;29;20465;-79
2022/07/30 02:10:21;;;;;;;4.05;3.65;;;;;;;;;;4845878;29;20041;-79
2022/07/30 02:12:51;;;;;;;5.35;3.70;;;;;;;;;;4845826;29;20128;-79
2022/07/30 02:15:36;;;;;;;5.53;3.92;;;;;;;;;;4860175;29;20510;-79
2022/07/30 02:18:13;;;;;;;11.40;3.80;;;;;;;;;;4860304;29;20415;-78
2022/07/30 02:20:39;;;;;;;4.25;3.38;;;;;;;;;;4876866;29;20128;-78
2022/07/30 02:23:05;;;;;;;7.68;3.80;;;;;;;;;;4860171;29;20455;-78
2022/07/30 02:25:32;;;;;;;7.47;3.88;;;;;;;;;;4859905;29;20060;-78
2022/07/30 02:27:59;;;;;;;6.10;3.75;;;;;;;;;;4891812;29;20077;-78
2022/07/30 02:30:26;;;;;;;5.47;3.70;;;;;;;;;;4864348;29;20037;-77
2022/07/30 02:32:53;;;;;;;4.85;3.70;;;;;;;;;;4876356;29;20044;-78
2022/07/30 02:35:19;;;;;;;4.82;4.00;;;;;;;;;;4876310;29;20057;-79
2022/07/30 02:37:46;;;;;;;5.10;3.78;;;;;;;;;;4859829;29;20328;-77
2022/07/30 02:40:13;;;;;;;4.75;4.05;;;;;;;;;;4859817;29;20132;-81
2022/07/30 02:42:40;;;;;;;5.30;3.10;;;;;;;;;;4875114;29;20060;-78
2022/07/30 02:45:06;;;;;;;8.02;2.80;;;;;;;;;;4859732;29;20553;-79
2022/07/30 02:47:32;;;;;;;5.18;2.40;;;;;;;;;;4859572;29;20076;-79
2022/07/30 02:50:01;;;;;;;3.10;2.63;;;;;;;;;;4876303;29;20045;-77
2022/07/30 02:52:29;;;;;;;9.15;2.83;;;;;;;;;;4874724;29;20518;-78
2022/07/30 02:54:55;;;;;;;4.60;2.78;;;;;;;;;;4859639;29;20053;-79
2022/07/30 02:57:21;;;;;;;7.53;2.75;;;;;;;;;;4859271;29;20064;-77
2022/07/30 02:59:47;;;;;;;9.15;2.80;;;;;;;;;;4859787;29;20613;-77
2022/07/30 03:02:13;;;;;;;7.18;3.45;;;;;;;;;;4859538;29;20157;-79
2022/07/30 03:04:39;;;;;;;3.85;2.85;;;;;;;;;;4859379;29;20052;-79
2022/07/30 03:07:05;;;;;;;5.85;2.88;;;;;;;;;;4874580;29;20081;-78
2022/07/30 03:09:33;;;;;;;3.58;3.28;;;;;;;;;;4859513;29;20041;-78
2022/07/30 03:11:59;;;;;;;3.35;2.88;;;;;;;;;;4858884;29;20053;-77
2022/07/30 03:14:26;;;;;;;10.48;3.00;;;;;;;;;;4875482;29;20041;-78
2022/07/30 03:16:55;;;;;;;5.30;3.10;;;;;;;;;;4875769;29;20048;-78
2022/07/30 03:19:21;;;;;;;4.40;2.60;;;;;;;;;;4860649;29;20049;-78
2022/07/30 03:21:47;;;;;;;3.67;2.50;;;;;;;;;;4878507;29;20277;-78
2022/07/30 03:24:13;;;;;;;3.50;2.92;;;;;;;;;;4878635;29;20067;-79
2022/07/30 03:26:39;;;;;;;3.38;2.67;;;;;;;;;;4862717;29;20061;-79
2022/07/30 03:29:06;;;;;;;2.70;2.55;;;;;;;;;;4863333;29;20081;-78
2022/07/30 03:31:32;;;;;;;3.05;2.72;;;;;;;;;;4878637;29;20049;-78
2022/07/30 03:33:58;;;;;;;5.18;3.00;;;;;;;;;;4879595;29;20514;-78
2022/07/30 03:36:24;;;;;;;4.32;2.67;;;;;;;;;;4863068;29;20143;-78
2022/07/30 03:38:50;;;;;;;3.92;2.95;;;;;;;;;;4863407;29;20085;-77
2022/07/30 03:41:16;;;;;;;3.78;2.90;;;;;;;;;;4863209;29;20127;-78
2022/07/30 03:43:44;;;;;;;4.22;2.88;;;;;;;;;;4865979;29;20049;-78
2022/07/30 03:46:10;;;;;;;4.32;2.78;;;;;;;;;;4881101;29;20080;-79
2022/07/30 03:48:39;;;;;;;5.82;2.90;;;;;;;;;;4872331;29;20159;-77
2022/07/30 03:51:05;;;;;;;3.55;3.00;;;;;;;;;;4861525;29;20059;-77
2022/07/30 03:53:31;;;;;;;4.55;2.72;;;;;;;;;;4889300;29;20119;-78
2022/07/30 03:56:16;;;;;;;5.78;2.72;;;;;;;;;;4879743;29;20108;-78
2022/07/30 03:59:04;;;;;;;4.13;2.85;;;;;;;;;;4862672;29;20143;-77
2022/07/30 04:01:30;;;;;;;3.78;2.70;;;;;;;;;;4862225;29;20153;-77
2022/07/30 04:04:08;;;;;;;3.08;2.55;;;;;;;;;;4862640;29;20127;-78
2022/07/30 04:06:38;;;;;;;4.55;2.70;;;;;;;;;;4862295;29;20057;-79
2022/07/30 04:09:04;;;;;;;;;;;;;;;;;;4863021;29;20120;-78
2022/07/30 04:11:30;;;;;;;2.95;2.58;;;;;;;;;;4878782;29;19923;-78
2022/07/30 04:14:01;;;;;;;7.30;2.78;;;;;;;;;;4862387;29;20074;-78
2022/07/30 04:16:57;;;;;;;4.55;2.65;;;;;;;;;;4862358;29;20041;-78
2022/07/30 04:19:25;;;;;;;4.25;2.88;;;;;;;;;;4859183;29;20053;-79
2022/07/30 04:21:52;;;;;;;4.68;2.50;;;;;;;;;;4879524;29;20052;-79
2022/07/30 04:24:19;;;;;;;10.32;2.95;;;;;;;;;;4863366;29;20045;-78
2022/07/30 04:26:45;;;;;;;5.75;3.10;;;;;;;;;;4862099;29;20064;-77
2022/07/30 04:29:11;;;;;;;5.57;2.70;;;;;;;;;;4860462;29;20052;-77
2022/07/30 04:31:37;;;;;;;4.82;2.45;;;;;;;;;;4854152;29;20061;-78
2022/07/30 04:34:16;;;;;;;3.25;2.72;;;;;;;;;;4848043;29;20541;-78
2022/07/30 04:36:42;;;;;;;2.95;2.67;;;;;;;;;;4863963;29;20056;-77
2022/07/30 04:39:08;;;;;;;7.88;2.33;;;;;;;;;;4864053;29;20060;-78
2022/07/30 04:41:35;;;;;;;4.85;2.60;;;;;;;;;;4878253;29;20088;-78
2022/07/30 04:44:39;;;;;;;5.53;2.83;;;;;;;;;;4868636;29;20051;-78
2022/07/30 04:47:30;;;;;;;8.40;2.90;;;;;;;;;;4861366;29;20564;-79
2022/07/30 04:50:23;;;;;;;5.85;2.88;;;;;;;;;;4851419;29;20707;-79
2022/07/30 04:52:49;;;;;;;3.90;2.05;;;;;;;;;;4846440;29;20065;-78
2022/07/30 04:55:21;;;;;;;5.03;2.50;;;;;;;;;;4861725;29;20056;-78
2022/07/30 04:57:48;;;;;;;2.90;2.60;;;;;;;;;;4878141;29;20135;-78
2022/07/30 05:00:14;;;;;;;3.83;2.42;;;;;;;;;;4830703;29;20395;-78
2022/07/30 05:02:41;;;;;;;3.30;2.63;;;;;;;;;;4845851;29;20461;-77
2022/07/30 05:05:07;;;;;;;6.75;2.67;;;;;;;;;;4877781;29;20128;-77
2022/07/30 05:07:33;;;;;;;3.85;2.95;;;;;;;;;;4845798;29;20407;-76
2022/07/30 05:10:00;;;;;;;6.43;2.80;;;;;;;;;;4861377;29;20049;-77
2022/07/30 05:12:32;;;;;;;6.60;2.65;;;;;;;;;;4860747;29;20065;-77
2022/07/30 05:14:59;;;;;;;5.38;2.30;;;;;;;;;;4860680;29;20044;-79
2022/07/30 05:17:25;;;;;;;4.65;2.70;;;;;;;;;;4877101;29;20053;-79
2022/07/30 05:19:51;;;;;;;3.20;2.10;;;;;;;;;;4860578;29;20197;-79
2022/07/30 05:22:17;;;;;;;2.80;2.03;;;;;;;;;;4860507;29;20095;-78
2022/07/30 05:24:43;;;;;;;4.35;2.58;;;;;;;;;;4860581;29;20042;-78
2022/07/30 05:27:09;;;;;;;2.50;1.88;;;;;;;;;;4860541;29;20228;-79
2022/07/30 05:29:35;;;;;;;5.03;2.13;;;;;;;;;;4860674;29;20048;-78
2022/07/30 05:32:10;;;;;;;2.15;2.03;;;;;;;;;;4860545;29;20055;-78
2022/07/30 05:34:36;;;;;;;3.67;1.95;;;;;;;;;;4860176;29;20052;-77
2022/07/30 05:37:02;;;;;;;9.15;2.58;;;;;;;;;;4860335;29;20057;-77
2022/07/30 05:39:28;;;;;;;6.50;1.98;;;;;;;;;;4860297;29;20049;-79
2022/07/30 05:42:27;;;;;;;5.45;2.58;;;;;;;;;;4844666;29;20057;-79
2022/07/30 05:44:56;;;;;;;4.93;1.95;;;;;;;;;;4860543;29;20115;-79
2022/07/30 05:47:22;;;;;;;3.00;2.05;;;;;;;;;;4844837;29;20386;-77
2022/07/30 05:49:48;;;;;;;6.93;2.05;;;;;;;;;;4860082;29;20045;-78
2022/07/30 05:52:15;;;;;;;4.47;2.08;;;;;;;;;;4876883;29;20049;-78
2022/07/30 05:54:41;;;;;;;2.03;1.92;;;;;;;;;;4859993;29;20047;-77
2022/07/30 05:57:34;;;;;;;6.20;1.92;;;;;;;;;;4857007;29;20144;-79
2022/07/30 06:00:00;;;;;;;4.38;2.08;;;;;;;;;;4860190;29;20041;-79
2022/07/30 06:02:42;;;;;;;4.93;2.05;;;;;;;;;;4876605;29;20555;-78
2022/07/30 06:05:20;;;;;;;4.88;1.70;;;;;;;;;;4876884;29;20037;-78
2022/07/30 06:07:47;;;;;;;9.02;2.30;;;;;;;;;;4860167;29;20127;-78
2022/07/30 06:10:14;;;;;;;4.25;2.20;;;;;;;;;;4860703;29;20083;-77
2022/07/30 06:12:41;;;;;;;6.38;2.20;;;;;;;;;;4879370;29;20161;-78
2022/07/30 06:15:08;;;;;;;3.50;2.10;;;;;;;;;;4859249;29;20620;-78
2022/07/30 06:17:40;;;;;;;4.13;2.58;;;;;;;;;;4875551;29;20075;-78
2022/07/30 06:20:17;;;;;;;3.85;1.92;;;;;;;;;;4845965;29;20505;-79
2022/07/30 06:23:09;;;;;;;2.95;2.08;;;;;;;;;;4871533;29;20045;-79
2022/07/30 06:25:47;;;;;;;6.75;1.90;;;;;;;;;;4859688;29;20590;-78
2022/07/30 06:28:14;;;;;;;2.42;2.13;;;;;;;;;;4859531;29;20060;-77
2022/07/30 06:30:40;;;;;;;3.55;1.90;;;;;;;;;;4859485;29;20037;-78
2022/07/30 06:33:06;;;;;;;6.35;1.88;;;;;;;;;;4859774;29;20052;-78
2022/07/30 06:35:35;;;;;;;2.65;1.90;;;;;;;;;;4859767;29;20166;-78
2022/07/30 06:38:01;;;;;;;6.90;2.10;;;;;;;;;;4859895;29;20599;-77
2022/07/30 06:40:27;;;;;;;4.15;2.30;;;;;;;;;;4860308;29;20141;-79
2022/07/30 06:43:11;;;;;;;4.60;2.10;;;;;;;;;;4860801;29;20587;-79
2022/07/30 06:45:59;;;;;;;2.20;2.00;;;;;;;;;;4848260;29;20457;-78
2022/07/30 06:48:33;;;;;;;3.20;2.13;;;;;;;;;;4861244;29;20052;-78
2022/07/30 06:51:01;;;;;;;5.22;1.83;;;;;;;;;;4861443;29;20097;-77
2022/07/30 06:53:28;;;;;;;2.42;1.73;;;;;;;;;;4862824;29;20071;-78
2022/07/30 06:56:29;;;;;;;3.25;1.80;;;;;;;;;;4861833;29;20049;-79
2022/07/30 06:59:01;;;;;;;4.07;1.70;;;;;;;;;;4869034;29;20044;-79
2022/07/30 07:01:45;;;;;;;3.40;1.65;;;;;;;;;;4883245;29;20048;-78
2022/07/30 07:04:11;;;;;;;3.15;1.80;;;;;;;;;;4846556;29;20055;-80
2022/07/30 07:06:38;;;;;;;4.00;1.33;;;;;;;;;;4859691;29;20049;-79
2022/07/30 07:09:06;;;;;;;3.28;1.30;;;;;;;;;;4859838;29;20045;-77
2022/07/30 07:11:42;;;;;;;1.40;1.20;;;;;;;;;;4859369;29;20049;-78
2022/07/30 07:14:11;;;;;;;1.60;1.50;;;;;;;;;;4844232;29;20150;-78
2022/07/30 07:16:37;;;;;;;2.20;1.30;;;;;;;;;;4859226;29;20041;-78
2022/07/30 07:19:23;;;;;;;2.63;1.73;;;;;;;;;;4824753;29;20052;-79
2022/07/30 07:21:49;;;;;;;1.58;1.48;;;;;;;;;;4875248;29;20052;-78
2022/07/30 07:24:15;;;;;;;3.28;1.58;;;;;;;;;;4859507;29;20045;-78
2022/07/30 07:26:52;;;;;;;2.75;1.33;;;;;;;;;;4859083;29;20093;-78
2022/07/30 07:29:19;;;;;;;1.48;1.38;;;;;;;;;;4859262;29;20049;-79
2022/07/30 07:31:45;;;;;;;3.50;1.58;;;;;;;;;;4858924;29;20510;-78
2022/07/30 07:34:12;;;;;;;5.97;1.52;;;;;;;;;;4859046;29;20057;-78
2022/07/30 07:36:38;;;;;;;1.90;1.42;;;;;;;;;;4875423;29;20053;-79
2022/07/30 07:39:08;;;;;;;3.75;2.05;;;;;;;;;;4843719;29;20052;-79
2022/07/30 07:41:37;;;;;;;1.98;1.80;;;;;;;;;;4858866;29;20061;-78
2022/07/30 07:44:04;;;;;;;4.25;1.58;;;;;;;;;;4859042;29;20530;-77
2022/07/30 07:46:31;;;;;;;1.55;1.45;;;;;;;;;;4858915;29;20135;-76
2022/07/30 07:48:57;;;;;;;2.05;1.50;;;;;;;;;;4843699;29;20173;-79
2022/07/30 07:51:34;;;;;;;1.50;1.27;;;;;;;;;;4858799;29;20056;-79
2022/07/30 07:54:02;;;;;;;2.55;1.30;;;;;;;;;;4858829;29;20048;-79
2022/07/30 07:56:27;;;;;;;1.40;1.30;;;;;;;;;;4875350;29;20113;-80
2022/07/30 07:58:54;;;;;;;2.60;1.40;;;;;;;;;;4858702;29;20048;-79
2022/07/30 08:01:20;;;;;;;1.25;1.10;;;;;;;;;;4858788;29;20072;-79
2022/07/30 08:04:05;;;;;;;1.30;1.30;;;;;;;;;;4876224;29;20052;-79
2022/07/30 08:06:49;;;;;;;0.95;0.95;;;;;;;;;;4880695;29;20137;-78
2022/07/30 08:09:34;;;;;;;2.05;1.40;;;;;;;;;;4892539;29;20418;-79
2022/07/30 08:12:20;;;;;;;1.13;1.13;;;;;;;;;;4879372;29;20052;-79
2022/07/30 08:15:05;;;;;;;1.55;1.20;;;;;;;;;;4865416;29;20578;-79
2022/07/30 08:18:06;;;;;;;1.30;1.30;;;;;;;;;;4862263;29;20049;-78
2022/07/30 08:20:44;;;;;;;2.47;1.42;;;;;;;;;;4848404;29;20048;-79
2022/07/30 08:23:11;;;;;;;1.50;1.38;;;;;;;;;;4862119;29;20414;-79
2022/07/30 08:25:37;;;;;;;3.88;1.65;;;;;;;;;;4862138;29;20049;-80
2022/07/30 08:28:03;;;;;;;1.15;1.13;;;;;;;;;;4861964;29;20063;-81
2022/07/30 08:30:30;;;;;;;8.00;1.50;;;;;;;;;;4862153;29;20467;-79
2022/07/30 08:32:56;;;;;;;2.80;1.42;;;;;;;;;;4861614;29;20460;-79
2022/07/30 08:35:23;;;;;;;3.25;1.77;;;;;;;;;;4861905;29;20529;-79
2022/07/30 08:37:50;;;;;;;3.15;1.73;;;;;;;;;;4878303;29;20057;-79
2022/07/30 08:40:18;;;;;;;1.42;1.25;;;;;;;;;;4861875;29;20045;-81
2022/07/30 08:42:52;;;;;;;4.55;1.40;;;;;;;;;;4861487;29;20476;-78
2022/07/30 08:45:18;;;;;;;1.75;1.30;;;;;;;;;;4861654;29;20082;-79
2022/07/30 08:47:45;;;;;;;1.80;1.20;;;;;;;;;;4878234;29;20053;-78
2022/07/30 08:50:11;;;;;;;1.02;1.02;;;;;;;;;;4861593;29;20049;-81
2022/07/30 08:52:54;;;;;;;1.10;1.02;;;;;;;;;;4845487;29;20068;-79
2022/07/30 08:55:21;;;;;;;4.57;1.42;;;;;;;;;;4862490;29;20100;-81
2022/07/30 08:57:47;;;;;;;2.13;1.40;;;;;;;;;;4846005;29;20045;-80
2022/07/30 09:00:13;;;;;;;3.75;1.60;;;;;;;;;;4878443;29;20056;-80
2022/07/30 09:02:40;;;;;;;1.60;1.50;;;;;;;;;;4861873;29;20053;-79
2022/07/30 09:05:07;;;;;;;2.72;1.40;;;;;;;;;;4878860;29;20049;-79
2022/07/30 09:07:32;;;;;;;1.23;1.20;;;;;;;;;;4861304;29;20049;-79
2022/07/30 09:09:59;;;;;;;1.50;1.40;;;;;;;;;;4861051;29;20048;-78
2022/07/30 09:12:36;;;;;;;2.78;1.50;;;;;;;;;;4861083;29;20037;-79
2022/07/30 09:15:10;;;;;;;2.17;1.30;;;;;;;;;;4861348;29;20045;-79
2022/07/30 09:17:51;;;;;;;1.40;1.30;;;;;;;;;;4876951;29;20048;-79
2022/07/30 09:20:18;;;;;;;1.38;1.27;;;;;;;;;;4861213;29;20053;-79
2022/07/30 09:22:45;;;;;;;3.05;1.40;;;;;;;;;;4860835;29;20128;-78
2022/07/30 09:25:32;;;;;;;2.05;1.60;;;;;;;;;;4877795;29;20052;-78
2022/07/30 09:28:29;;;;;;;1.42;1.30;;;;;;;;;;4877727;29;20056;-80
2022/07/30 09:31:12;;;;;;;3.63;1.52;;;;;;;;;;4877541;29;20041;-78
2022/07/30 09:33:57;;;;;;;2.35;1.80;;;;;;;;;;4877179;29;20064;-77
2022/07/30 09:36:58;;;;;;;1.30;1.10;;;;;;;;;;4876656;29;20049;-80
2022/07/30 09:39:45;;;;;;;2.28;1.50;;;;;;;;;;4877218;29;20049;-79
2022/07/30 09:42:18;;;;;;;2.17;1.40;;;;;;;;;;4877485;29;20109;-77
2022/07/30 09:44:45;;;;;;;1.10;1.10;;;;;;;;;;4845351;29;20048;-78
2022/07/30 09:47:31;;;;;;;4.10;1.38;;;;;;;;;;4860478;29;20067;-79
2022/07/30 09:50:11;;;;;;;3.15;1.30;;;;;;;;;;4848007;29;20087;-79
2022/07/30 09:52:38;;;;;;;2.13;1.95;;;;;;;;;;4860916;29;20057;-78
2022/07/30 09:55:04;;;;;;;2.90;1.38;;;;;;;;;;4860894;29;20064;-79
2022/07/30 09:57:30;;;;;;;1.67;1.63;;;;;;;;;;4861103;29;20044;-77
2022/07/30 10:00:17;;;;;;;4.13;1.27;;;;;;;;;;4875520;29;20049;-78
2022/07/30 10:02:49;;;;;;;5.80;1.50;;;;;;;;;;4866083;29;20083;-79
2022/07/30 10:05:33;;;;;;;2.00;1.05;;;;;;;;;;4881124;29;20045;-80
2022/07/30 10:08:00;;;;;;;1.73;1.33;;;;;;;;;;4883889;29;20132;-80
2022/07/30 10:10:26;;;;;;;1.45;1.10;;;;;;;;;;4871957;29;20077;-78
2022/07/30 10:13:02;;;;;;;1.95;1.60;;;;;;;;;;4865626;29;20553;-79
2022/07/30 10:15:29;;;;;;;2.55;1.52;;;;;;;;;;4860673;29;20085;-78
2022/07/30 10:17:55;;;;;;;3.33;1.60;;;;;;;;;;4876995;29;20053;-80
2022/07/30 10:20:47;;;;;;;4.18;1.45;;;;;;;;;;4861583;29;20059;-80
2022/07/30 10:23:32;;;;;;;1.33;1.33;;;;;;;;;;4876672;29;20069;-80
2022/07/30 10:26:26;;;;;;;3.17;1.45;;;;;;;;;;4863972;29;20097;-81
2022/07/30 10:29:19;;;;;;;5.28;1.30;;;;;;;;;;4835331;29;20464;-79
2022/07/30 10:31:45;;;;;;;3.75;1.48;;;;;;;;;;4876452;29;20491;-80
2022/07/30 10:34:12;;;;;;;2.58;1.30;;;;;;;;;;4876276;29;20068;-79
2022/07/30 10:36:42;;;;;;;3.20;1.25;;;;;;;;;;4875418;29;20135;-78
2022/07/30 10:39:08;;;;;;;;;;;;;;;;;;4861692;29;20053;-78
2022/07/30 10:41:48;;;;;;;1.60;1.50;;;;;;;;;;4876604;29;19938;-79
2022/07/30 10:44:18;;;;;;;2.00;1.50;;;;;;;;;;4859775;29;20068;-80
2022/07/30 10:46:43;;;;;;;3.60;1.55;;;;;;;;;;4875878;29;20061;-79
2022/07/30 10:49:10;;;;;;;1.40;1.40;;;;;;;;;;4876230;29;20124;-79
2022/07/30 10:51:46;;;;;;;1.30;1.30;;;;;;;;;;4876193;29;20132;-79
2022/07/30 10:54:30;;;;;;;2.67;1.38;;;;;;;;;;4859941;29;20230;-78
2022/07/30 10:57:17;;;;;;;2.50;1.50;;;;;;;;;;4876012;29;20072;-79
2022/07/30 10:59:54;;;;;;;1.77;1.60;;;;;;;;;;4875881;29;20417;-79
2022/07/30 11:02:23;;;;;;;4.40;1.60;;;;;;;;;;4876408;29;20040;-79
2022/07/30 11:04:49;;;;;;;3.40;1.40;;;;;;;;;;4859324;29;20614;-78
2022/07/30 11:07:21;;;;;;;1.88;1.10;;;;;;;;;;4876052;29;20052;-79
2022/07/30 11:09:47;;;;;;;1.73;1.63;;;;;;;;;;4875717;29;20135;-79
2022/07/30 11:12:13;;;;;;;1.63;1.35;;;;;;;;;;4875883;29;20084;-79
2022/07/30 11:14:45;;;;;;;3.13;1.50;;;;;;;;;;4876097;29;20561;-78
